createdAt,value
2023-02-12T00:04:01.869Z,26.70
2023-02-12T00:08:04.159Z,26.02
2023-02-12T00:12:06.536Z,26.33
2023-02-12T00:16:11.187Z,25.88
2023-02-12T00:20:13.380Z,25.90
2023-02-12T00:24:15.416Z,25.80
2023-02-12T00:28:17.456Z,26.65
2023-02-12T00:32:19.633Z,25.67
2023-02-12T00:36:24.535Z,26.05
2023-02-12T00:40:26.549Z,28.08
2023-02-12T00:44:28.564Z,27.45
2023-02-12T00:48:31.680Z,27.75
2023-02-12T00:52:33.705Z,28.52
2023-02-12T00:56:35.719Z,26.75
2023-02-12T01:00:38.373Z,27.65
2023-02-12T01:04:40.446Z,27.73
2023-02-12T01:08:42.500Z,27.88
2023-02-12T01:12:44.903Z,28.35
2023-02-12T01:16:46.957Z,28.00
2023-02-12T01:20:48.934Z,28.33
2023-02-12T01:24:51.076Z,29.13
2023-02-12T01:29:01.304Z,27.90
2023-02-12T01:33:03.567Z,28.35
2023-02-12T01:37:05.568Z,29.33
2023-02-12T01:41:14.859Z,28.35
2023-02-12T01:45:16.828Z,28.27
2023-02-12T01:49:41.076Z,26.83
2023-02-12T01:53:50.908Z,28.55
2023-02-12T01:57:53.284Z,29.85
2023-02-12T02:01:55.367Z,101.45
2023-02-12T02:06:09.757Z,30.52
2023-02-12T02:10:12.982Z,27.75
2023-02-12T02:14:33.402Z,27.45
2023-02-12T02:19:17.899Z,27.88
2023-02-12T02:23:34.507Z,29.15
2023-02-12T02:27:49.252Z,27.88
2023-02-12T02:32:08.218Z,27.98
2023-02-12T02:36:27.811Z,27.65
2023-02-12T02:40:40.139Z,27.27
2023-02-12T02:44:59.315Z,27.27
2023-02-12T02:49:14.525Z,27.13
2023-02-12T02:53:27.490Z,27.75
2023-02-12T02:57:36.246Z,28.20
2023-02-12T03:01:50.110Z,27.85
2023-02-12T03:05:58.037Z,28.42
2023-02-12T03:10:12.120Z,27.80
2023-02-12T03:14:20.440Z,29.67
2023-02-12T03:18:27.569Z,26.10
2023-02-12T03:22:36.221Z,27.98
2023-02-12T03:26:47.523Z,28.55
2023-02-12T03:31:09.187Z,28.70
2023-02-12T03:35:20.808Z,28.13
2023-02-12T03:39:49.303Z,27.20
2023-02-12T03:43:56.946Z,26.92
2023-02-12T03:48:20.218Z,24.08
2023-02-12T03:52:22.697Z,26.27
2023-02-12T03:56:52.081Z,26.40
2023-02-12T04:00:54.743Z,27.50
2023-02-12T04:04:56.777Z,25.77
2023-02-12T04:09:03.882Z,26.17
2023-02-12T04:13:21.315Z,25.65
2023-02-12T04:18:04.842Z,24.77
2023-02-12T04:22:36.739Z,25.10
2023-02-12T04:26:55.576Z,24.13
2023-02-12T04:31:04.068Z,24.83
2023-02-12T04:35:26.808Z,24.65
2023-02-12T04:39:32.044Z,25.85
2023-02-12T04:43:36.950Z,25.98
2023-02-12T04:47:39.306Z,26.05
2023-02-12T04:51:41.374Z,25.10
2023-02-12T04:55:43.472Z,26.45
2023-02-12T04:59:45.543Z,25.52
2023-02-12T05:03:47.595Z,24.15
2023-02-12T05:07:49.949Z,25.30
2023-02-12T05:11:51.988Z,25.70
2023-02-12T05:15:54.209Z,25.30
2023-02-12T05:19:56.454Z,25.67
2023-02-12T05:23:58.424Z,25.85
2023-02-12T05:28:00.452Z,26.23
2023-02-12T05:32:03.033Z,24.98
2023-02-12T05:36:12.045Z,24.70
2023-02-12T05:40:14.618Z,25.17
2023-02-12T05:44:16.710Z,24.20
2023-02-12T05:48:18.736Z,23.88
2023-02-12T05:52:20.737Z,25.75
2023-02-12T05:56:25.583Z,23.90
2023-02-12T06:00:27.641Z,24.05
2023-02-12T06:04:29.666Z,22.40
2023-02-12T06:08:31.871Z,21.98
2023-02-12T06:12:33.874Z,24.55
2023-02-12T06:16:36.151Z,23.35
2023-02-12T06:20:41.346Z,24.15
2023-02-12T06:24:43.316Z,24.20
2023-02-12T06:28:45.420Z,25.90
2023-02-12T06:32:50.200Z,24.55
2023-02-12T06:36:52.224Z,22.85
2023-02-12T06:40:54.221Z,23.08
2023-02-12T06:44:56.213Z,24.70
2023-02-12T06:49:00.270Z,23.25
2023-02-12T06:53:02.366Z,24.40
2023-02-12T06:57:04.386Z,22.25
2023-02-12T07:01:13.681Z,22.40
2023-02-12T07:05:15.933Z,22.77
2023-02-12T07:09:17.980Z,23.15
2023-02-12T07:13:19.982Z,24.05
2023-02-12T07:17:21.968Z,23.20
2023-02-12T07:21:23.982Z,21.70
2023-02-12T07:25:25.958Z,22.88
2023-02-12T07:29:27.935Z,22.58
2023-02-12T07:33:29.929Z,22.75
2023-02-12T07:37:31.966Z,22.55
2023-02-12T07:41:35.961Z,23.73
2023-02-12T07:45:37.994Z,24.58
2023-02-12T07:49:40.010Z,23.92
2023-02-12T07:53:42.361Z,23.23
2023-02-12T07:57:44.395Z,23.67
2023-02-12T08:01:48.944Z,24.20
2023-02-12T08:05:51.022Z,22.40
2023-02-12T08:09:53.431Z,21.75
2023-02-12T08:13:58.131Z,21.80
2023-02-12T08:18:01.517Z,21.92
2023-02-12T08:22:03.571Z,22.75
2023-02-12T08:26:32.894Z,22.65
2023-02-12T08:30:34.893Z,20.40
2023-02-12T08:34:36.901Z,22.38
2023-02-12T08:38:39.682Z,21.88
2023-02-12T08:42:41.919Z,22.30
2023-02-12T08:46:47.130Z,21.35
2023-02-12T08:50:49.170Z,21.92
2023-02-12T08:54:51.239Z,21.75
2023-02-12T08:58:53.208Z,20.77
2023-02-12T09:02:55.191Z,20.65
2023-02-12T09:06:57.577Z,23.73
2023-02-12T09:10:59.574Z,22.90
2023-02-12T09:15:01.588Z,21.23
2023-02-12T09:19:04.541Z,19.38
2023-02-12T09:23:07.905Z,18.30
2023-02-12T09:27:10.025Z,18.55
2023-02-12T09:31:15.420Z,18.98
2023-02-12T09:35:18.497Z,19.33
2023-02-12T09:39:20.480Z,17.92
2023-02-12T09:43:40.140Z,20.35
2023-02-12T09:48:02.962Z,17.88
2023-02-12T09:52:10.639Z,18.20
2023-02-12T09:56:14.884Z,17.77
2023-02-12T10:00:31.075Z,17.52
2023-02-12T10:04:33.240Z,15.48
2023-02-12T10:09:00.479Z,15.32
2023-02-12T10:13:10.753Z,12.90
2023-02-12T10:17:42.242Z,13.23
2023-02-12T10:21:53.425Z,13.43
2023-02-12T10:26:02.344Z,13.52
2023-02-12T10:30:16.769Z,13.32
2023-02-12T10:34:22.473Z,12.63
2023-02-12T10:38:30.246Z,13.15
2023-02-12T10:42:41.946Z,12.40
2023-02-12T10:46:44.285Z,13.85
2023-02-12T10:50:58.868Z,14.38
2023-02-12T10:55:01.351Z,14.57
2023-02-12T10:59:03.375Z,14.27
2023-02-12T11:03:08.401Z,13.25
2023-02-12T11:07:10.473Z,13.93
2023-02-12T11:11:33.087Z,14.02
2023-02-12T11:15:46.000Z,12.45
2023-02-12T11:20:02.901Z,11.48
2023-02-12T11:24:30.150Z,10.80
2023-02-12T11:28:35.096Z,16.65
2023-02-12T11:32:37.490Z,16.20
2023-02-12T11:36:53.678Z,13.23
2023-02-12T11:41:00.004Z,12.70
2023-02-12T11:45:02.747Z,12.43
2023-02-12T11:49:06.138Z,12.65
2023-02-12T11:53:09.803Z,10.95
2023-02-12T11:57:50.936Z,12.02
2023-02-12T12:01:56.005Z,12.13
2023-02-12T12:06:08.141Z,11.73
2023-02-12T12:10:39.234Z,11.05
2023-02-12T12:15:23.706Z,10.60
2023-02-12T12:19:53.213Z,11.15
2023-02-12T12:24:00.750Z,10.88
2023-02-12T12:28:15.141Z,17.15
2023-02-12T12:32:21.217Z,10.63
2023-02-12T12:36:58.350Z,9.98
2023-02-12T12:41:26.576Z,9.93
2023-02-12T12:45:40.616Z,9.98
2023-02-12T12:49:54.226Z,8.95
2023-02-12T12:53:59.172Z,8.75
2023-02-12T12:58:15.863Z,10.15
2023-02-12T13:02:42.999Z,9.87
2023-02-12T13:07:03.300Z,10.67
2023-02-12T13:11:08.127Z,14.20
2023-02-12T13:15:28.949Z,7.25
2023-02-12T13:19:40.321Z,7.00
2023-02-12T13:24:06.655Z,5.93
2023-02-12T13:28:22.593Z,5.70
2023-02-12T13:32:37.588Z,9.05
2023-02-12T13:36:41.722Z,10.90
2023-02-12T13:40:43.919Z,11.00
2023-02-12T13:44:56.449Z,10.35
2023-02-12T13:49:29.680Z,11.90
2023-02-12T13:53:45.899Z,13.00
2023-02-12T13:58:26.561Z,15.82
2023-02-12T14:02:43.106Z,13.90
2023-02-12T14:06:58.727Z,12.35
2023-02-12T14:11:17.839Z,14.80
2023-02-12T14:15:32.415Z,15.30
2023-02-12T14:19:50.762Z,13.80
2023-02-12T14:23:53.925Z,13.65
2023-02-12T14:28:12.822Z,14.07
2023-02-12T14:33:09.703Z,13.68
2023-02-12T14:37:32.057Z,11.88
2023-02-12T14:41:43.132Z,10.60
2023-02-12T14:45:45.210Z,10.25
2023-02-12T14:49:52.035Z,10.13
2023-02-12T14:53:56.081Z,10.57
2023-02-12T14:58:01.867Z,10.30
2023-02-12T15:02:06.267Z,11.02
2023-02-12T15:06:21.970Z,9.80
2023-02-12T15:10:37.184Z,8.65
2023-02-12T15:14:51.433Z,8.63
2023-02-12T15:19:31.238Z,8.70
2023-02-12T15:23:41.663Z,9.10
2023-02-12T15:27:48.705Z,7.15
2023-02-12T15:32:02.839Z,7.60
2023-02-12T15:36:07.497Z,10.48
2023-02-12T15:40:15.498Z,6.82
2023-02-12T15:44:28.398Z,6.57
2023-02-12T15:48:33.583Z,5.43
2023-02-12T15:52:39.403Z,5.78
2023-02-12T15:56:41.778Z,10.05
2023-02-12T16:00:48.875Z,7.72
2023-02-12T16:04:51.067Z,7.40
2023-02-12T16:09:01.474Z,7.63
2023-02-12T16:13:04.164Z,9.18
2023-02-12T16:17:21.750Z,10.73
2023-02-12T16:25:27.753Z,11.35
2023-02-12T16:29:32.258Z,10.63
2023-02-12T16:33:48.689Z,9.57
2023-02-12T16:37:52.870Z,12.57
2023-02-12T16:41:56.729Z,12.30
2023-02-12T16:46:05.452Z,11.05
2023-02-12T16:50:15.242Z,10.75
2023-02-12T16:54:31.304Z,11.32
2023-02-12T16:58:33.530Z,10.70
2023-02-12T17:02:38.511Z,11.93
2023-02-12T17:06:40.504Z,12.32
2023-02-12T17:10:44.630Z,11.38
2023-02-12T17:14:47.263Z,12.00
2023-02-12T17:18:49.306Z,11.82
2023-02-12T17:22:54.053Z,11.68
2023-02-12T17:26:56.384Z,14.18
2023-02-12T17:30:58.898Z,70.20
2023-02-12T17:35:01.068Z,28.85
2023-02-12T17:39:05.215Z,11.40
2023-02-12T17:43:07.593Z,19.70
2023-02-12T17:47:09.758Z,11.13
2023-02-12T17:51:12.319Z,12.75
2023-02-12T17:55:15.085Z,10.15
2023-02-12T17:59:17.402Z,11.52
2023-02-12T18:03:19.425Z,8.85
2023-02-12T18:07:21.431Z,7.72
2023-02-12T18:11:23.989Z,7.32
2023-02-12T18:15:26.007Z,11.50
2023-02-12T18:19:28.847Z,9.88
2023-02-12T18:23:30.992Z,10.52
2023-02-12T18:27:33.026Z,8.18
2023-02-12T18:31:35.383Z,7.97
2023-02-12T18:35:37.590Z,6.88
2023-02-12T18:39:40.029Z,7.53
2023-02-12T18:43:43.995Z,7.85
2023-02-12T18:47:46.165Z,7.15
2023-02-12T18:51:48.161Z,7.43
2023-02-12T18:55:50.628Z,7.35
2023-02-12T18:59:52.689Z,9.02
2023-02-12T19:03:57.390Z,7.93
2023-02-12T19:08:00.097Z,7.32
2023-02-12T19:12:02.415Z,6.57
2023-02-12T19:16:15.340Z,6.35
2023-02-12T19:20:17.640Z,6.35
2023-02-12T19:24:19.710Z,7.35
2023-02-12T19:28:21.748Z,7.75
2023-02-12T19:32:23.774Z,7.57
2023-02-12T19:36:27.528Z,9.50
2023-02-12T19:40:29.526Z,10.07
2023-02-12T19:44:31.652Z,8.93
2023-02-12T19:48:34.073Z,12.38
2023-02-12T19:52:36.924Z,12.68
2023-02-12T19:56:39.332Z,13.65
2023-02-12T20:00:41.355Z,14.10
2023-02-12T20:04:43.579Z,10.10
2023-02-12T20:08:45.803Z,9.70
2023-02-12T20:12:47.815Z,9.90
2023-02-12T20:16:53.330Z,10.35
2023-02-12T20:20:55.672Z,9.05
2023-02-12T20:24:58.051Z,10.40
2023-02-12T20:29:03.299Z,9.77
2023-02-12T20:33:06.833Z,8.18
2023-02-12T20:37:08.881Z,9.10
2023-02-12T20:41:11.427Z,10.00
2023-02-12T20:45:13.406Z,12.65
2023-02-12T20:49:17.412Z,11.90
2023-02-12T20:53:19.401Z,12.05
2023-02-12T20:57:21.513Z,12.57
2023-02-12T21:01:26.544Z,11.88
2023-02-12T21:05:28.899Z,12.68
2023-02-12T21:09:31.024Z,12.07
2023-02-12T21:13:33.283Z,14.65
2023-02-12T21:17:35.792Z,13.38
2023-02-12T21:21:39.528Z,18.80
2023-02-12T21:25:41.532Z,21.85
2023-02-12T21:29:43.544Z,13.57
2023-02-12T21:33:47.940Z,14.13
2023-02-12T21:37:49.950Z,15.82
2023-02-12T21:41:54.521Z,13.63
2023-02-12T21:45:56.618Z,17.92
2023-02-12T21:49:58.754Z,24.35
2023-02-12T21:54:03.386Z,27.25
2023-02-12T21:58:05.399Z,17.17
2023-02-12T22:02:09.610Z,14.43
2023-02-12T22:06:13.626Z,11.45
2023-02-12T22:10:15.897Z,22.85
2023-02-12T22:14:18.406Z,18.10
2023-02-12T22:18:20.414Z,14.82
2023-02-12T22:22:23.740Z,21.75
2023-02-12T22:26:27.848Z,25.00
2023-02-12T22:30:29.896Z,13.68
2023-02-12T22:34:32.028Z,18.00
2023-02-12T22:38:35.818Z,15.98
2023-02-12T22:42:37.932Z,10.77
2023-02-12T22:46:41.694Z,9.90
2023-02-12T22:50:43.722Z,9.52
2023-02-12T22:54:45.757Z,9.73
2023-02-12T22:58:47.997Z,9.70
2023-02-12T23:02:50.006Z,9.35
2023-02-12T23:06:52.024Z,8.98
2023-02-12T23:10:54.051Z,8.90
2023-02-12T23:14:56.083Z,9.70
2023-02-12T23:19:00.381Z,8.95
2023-02-12T23:23:02.442Z,8.98
2023-02-12T23:27:04.483Z,8.55
2023-02-12T23:31:06.746Z,9.38
2023-02-12T23:35:08.840Z,8.93
2023-02-12T23:39:12.420Z,9.15
2023-02-12T23:43:14.883Z,9.45
2023-02-12T23:47:16.906Z,9.27
2023-02-12T23:51:18.920Z,9.13
2023-02-12T23:55:21.551Z,9.00
2023-02-12T23:59:25.427Z,9.27
